sensor_id;sensor_type;location;lat;lon;timestamp;pressure;altitude;pressure_sealevel;temperature;humidity
74613;BME280;63119;51.788;8.824;2024-01-16T00:00:04;98988.03;;;1.57;94.70
74613;BME280;63119;51.788;8.824;2024-01-16T00:02:29;98989.66;;;1.59;94.97
74613;BME280;63119;51.788;8.824;2024-01-16T00:04:54;98993.97;;;1.60;95.58
74613;BME280;63119;51.788;8.824;2024-01-16T00:07:20;99003.59;;;1.58;95.54
74613;BME280;63119;51.788;8.824;2024-01-16T00:09:45;99006.06;;;1.61;95.81
74613;BME280;63119;51.788;8.824;2024-01-16T00:12:11;99005.66;;;1.52;96.06
74613;BME280;63119;51.788;8.824;2024-01-16T00:14:37;99015.94;;;1.55;96.52
74613;BME280;63119;51.788;8.824;2024-01-16T00:17:02;99002.81;;;1.56;95.58
74613;BME280;63119;51.788;8.824;2024-01-16T00:19:28;99008.59;;;1.63;95.87
74613;BME280;63119;51.788;8.824;2024-01-16T00:21:53;99019.75;;;1.67;95.55
74613;BME280;63119;51.788;8.824;2024-01-16T00:24:18;99022.22;;;1.51;96.04
74613;BME280;63119;51.788;8.824;2024-01-16T00:26:43;99032.50;;;1.54;95.57
74613;BME280;63119;51.788;8.824;2024-01-16T00:29:09;99028.47;;;1.47;95.62
74613;BME280;63119;51.788;8.824;2024-01-16T00:31:34;99037.56;;;1.57;94.95
74613;BME280;63119;51.788;8.824;2024-01-16T00:34:00;99036.38;;;1.64;95.13
74613;BME280;63119;51.788;8.824;2024-01-16T00:36:25;99042.16;;;1.52;95.43
74613;BME280;63119;51.788;8.824;2024-01-16T00:38:50;99036.56;;;1.41;96.07
74613;BME280;63119;51.788;8.824;2024-01-16T00:41:15;99038.00;;;1.48;95.86
74613;BME280;63119;51.788;8.824;2024-01-16T00:43:42;99050.75;;;1.54;95.58
74613;BME280;63119;51.788;8.824;2024-01-16T00:46:07;99059.19;;;1.59;95.60
74613;BME280;63119;51.788;8.824;2024-01-16T00:48:32;99054.19;;;1.36;96.10
74613;BME280;63119;51.788;8.824;2024-01-16T00:50:58;99041.66;;;1.44;96.74
74613;BME280;63119;51.788;8.824;2024-01-16T00:53:23;99043.69;;;1.56;95.75
74613;BME280;63119;51.788;8.824;2024-01-16T00:55:48;99065.63;;;1.52;95.84
74613;BME280;63119;51.788;8.824;2024-01-16T00:58:13;99051.16;;;1.45;96.79
74613;BME280;63119;51.788;8.824;2024-01-16T01:00:39;99063.97;;;1.49;96.96
74613;BME280;63119;51.788;8.824;2024-01-16T01:03:04;99065.09;;;1.44;97.53
74613;BME280;63119;51.788;8.824;2024-01-16T01:05:30;99061.16;;;1.35;97.62
74613;BME280;63119;51.788;8.824;2024-01-16T01:07:55;99067.72;;;1.44;96.85
74613;BME280;63119;51.788;8.824;2024-01-16T01:10:21;99078.22;;;1.42;96.89
74613;BME280;63119;51.788;8.824;2024-01-16T01:12:46;99082.88;;;1.36;96.78
74613;BME280;63119;51.788;8.824;2024-01-16T01:15:11;99091.44;;;1.38;97.18
74613;BME280;63119;51.788;8.824;2024-01-16T01:17:38;99093.44;;;1.33;96.94
74613;BME280;63119;51.788;8.824;2024-01-16T01:20:04;99088.56;;;1.44;95.51
74613;BME280;63119;51.788;8.824;2024-01-16T01:22:29;99095.91;;;1.36;95.67
74613;BME280;63119;51.788;8.824;2024-01-16T01:24:54;99093.00;;;1.42;95.32
74613;BME280;63119;51.788;8.824;2024-01-16T01:27:20;99105.69;;;1.49;94.33
74613;BME280;63119;51.788;8.824;2024-01-16T01:29:45;99103.75;;;1.34;94.35
74613;BME280;63119;51.788;8.824;2024-01-16T01:32:11;99108.56;;;1.43;93.59
74613;BME280;63119;51.788;8.824;2024-01-16T01:34:36;99108.38;;;1.48;93.66
74613;BME280;63119;51.788;8.824;2024-01-16T01:37:03;99111.25;;;1.42;93.82
74613;BME280;63119;51.788;8.824;2024-01-16T01:39:28;99115.13;;;1.33;93.10
74613;BME280;63119;51.788;8.824;2024-01-16T01:41:54;99113.22;;;1.37;92.04
74613;BME280;63119;51.788;8.824;2024-01-16T01:44:19;99113.72;;;1.45;92.92
74613;BME280;63119;51.788;8.824;2024-01-16T01:46:45;99119.66;;;1.48;92.74
74613;BME280;63119;51.788;8.824;2024-01-16T01:49:12;99119.63;;;1.30;92.94
74613;BME280;63119;51.788;8.824;2024-01-16T01:51:38;99115.97;;;1.34;92.91
74613;BME280;63119;51.788;8.824;2024-01-16T01:54:04;99119.22;;;1.39;92.87
74613;BME280;63119;51.788;8.824;2024-01-16T01:56:29;99119.34;;;1.36;92.95
74613;BME280;63119;51.788;8.824;2024-01-16T01:58:56;99119.13;;;1.40;92.87
74613;BME280;63119;51.788;8.824;2024-01-16T02:01:23;99134.91;;;1.37;92.99
74613;BME280;63119;51.788;8.824;2024-01-16T02:03:49;99132.44;;;1.34;93.53
74613;BME280;63119;51.788;8.824;2024-01-16T02:06:15;99130.34;;;1.42;92.94
74613;BME280;63119;51.788;8.824;2024-01-16T02:08:41;99127.88;;;1.39;92.78
74613;BME280;63119;51.788;8.824;2024-01-16T02:11:07;99121.59;;;1.43;92.16
74613;BME280;63119;51.788;8.824;2024-01-16T02:13:32;99141.22;;;1.52;91.76
74613;BME280;63119;51.788;8.824;2024-01-16T02:15:57;99138.94;;;1.44;91.91
74613;BME280;63119;51.788;8.824;2024-01-16T02:18:23;99152.41;;;1.54;91.60
74613;BME280;63119;51.788;8.824;2024-01-16T02:20:48;99149.09;;;1.50;91.95
74613;BME280;63119;51.788;8.824;2024-01-16T02:23:15;99144.00;;;1.47;91.20
74613;BME280;63119;51.788;8.824;2024-01-16T02:25:41;99155.03;;;1.54;91.12
74613;BME280;63119;51.788;8.824;2024-01-16T02:28:07;99156.72;;;1.55;91.93
74613;BME280;63119;51.788;8.824;2024-01-16T02:30:33;99156.41;;;1.42;91.93
74613;BME280;63119;51.788;8.824;2024-01-16T02:32:58;99154.78;;;1.40;91.99
74613;BME280;63119;51.788;8.824;2024-01-16T02:35:24;99158.81;;;1.47;92.21
74613;BME280;63119;51.788;8.824;2024-01-16T02:37:49;99148.25;;;1.50;91.33
74613;BME280;63119;51.788;8.824;2024-01-16T02:40:14;99139.78;;;1.45;91.48
74613;BME280;63119;51.788;8.824;2024-01-16T02:42:40;99165.50;;;1.34;91.62
74613;BME280;63119;51.788;8.824;2024-01-16T02:45:06;99158.66;;;1.50;91.98
74613;BME280;63119;51.788;8.824;2024-01-16T02:47:31;99167.28;;;1.52;91.84
74613;BME280;63119;51.788;8.824;2024-01-16T02:49:58;99172.06;;;1.42;92.33
74613;BME280;63119;51.788;8.824;2024-01-16T02:52:23;99168.31;;;1.48;91.91
74613;BME280;63119;51.788;8.824;2024-01-16T02:54:48;99165.63;;;1.49;91.68
74613;BME280;63119;51.788;8.824;2024-01-16T02:57:13;99166.56;;;1.48;91.69
74613;BME280;63119;51.788;8.824;2024-01-16T02:59:38;99164.25;;;1.42;92.24
74613;BME280;63119;51.788;8.824;2024-01-16T03:02:04;99173.72;;;1.43;92.51
74613;BME280;63119;51.788;8.824;2024-01-16T03:04:29;99174.09;;;1.36;92.83
74613;BME280;63119;51.788;8.824;2024-01-16T03:06:55;99167.84;;;1.40;93.26
74613;BME280;63119;51.788;8.824;2024-01-16T03:09:20;99162.47;;;1.43;93.91
74613;BME280;63119;51.788;8.824;2024-01-16T03:11:45;99163.44;;;1.40;93.36
74613;BME280;63119;51.788;8.824;2024-01-16T03:14:11;99170.44;;;1.40;93.43
74613;BME280;63119;51.788;8.824;2024-01-16T03:16:36;99169.75;;;1.55;93.16
74613;BME280;63119;51.788;8.824;2024-01-16T03:19:01;99174.84;;;1.58;92.86
74613;BME280;63119;51.788;8.824;2024-01-16T03:21:26;99174.31;;;1.50;93.51
74613;BME280;63119;51.788;8.824;2024-01-16T03:23:52;99168.31;;;1.48;93.43
74613;BME280;63119;51.788;8.824;2024-01-16T03:26:17;99174.59;;;1.44;93.56
74613;BME280;63119;51.788;8.824;2024-01-16T03:28:42;99167.88;;;1.38;94.12
74613;BME280;63119;51.788;8.824;2024-01-16T03:31:08;99173.31;;;1.52;93.67
74613;BME280;63119;51.788;8.824;2024-01-16T03:33:33;99169.75;;;1.55;93.72
74613;BME280;63119;51.788;8.824;2024-01-16T03:36:00;99171.50;;;1.54;93.49
74613;BME280;63119;51.788;8.824;2024-01-16T03:38:25;99180.59;;;1.46;93.20
74613;BME280;63119;51.788;8.824;2024-01-16T03:40:50;99176.56;;;1.39;93.09
74613;BME280;63119;51.788;8.824;2024-01-16T03:43:16;99187.88;;;1.38;93.00
74613;BME280;63119;51.788;8.824;2024-01-16T03:45:42;99186.50;;;1.49;92.32
74613;BME280;63119;51.788;8.824;2024-01-16T03:48:07;99187.69;;;1.42;93.08
74613;BME280;63119;51.788;8.824;2024-01-16T03:50:32;99185.00;;;1.44;92.72
74613;BME280;63119;51.788;8.824;2024-01-16T03:52:59;99191.06;;;1.44;93.45
74613;BME280;63119;51.788;8.824;2024-01-16T03:55:24;99199.25;;;1.37;93.47
74613;BME280;63119;51.788;8.824;2024-01-16T03:57:49;99182.09;;;1.31;93.43
74613;BME280;63119;51.788;8.824;2024-01-16T04:00:16;99194.28;;;1.31;93.84
74613;BME280;63119;51.788;8.824;2024-01-16T04:02:41;99185.41;;;1.35;93.50
74613;BME280;63119;51.788;8.824;2024-01-16T04:05:07;99188.69;;;1.40;93.08
74613;BME280;63119;51.788;8.824;2024-01-16T04:07:32;99185.41;;;1.35;93.29
74613;BME280;63119;51.788;8.824;2024-01-16T04:09:58;99192.47;;;1.33;93.58
74613;BME280;63119;51.788;8.824;2024-01-16T04:12:23;99180.47;;;1.29;93.46
74613;BME280;63119;51.788;8.824;2024-01-16T04:14:48;99185.53;;;1.32;93.38
74613;BME280;63119;51.788;8.824;2024-01-16T04:17:14;99182.88;;;1.33;93.19
74613;BME280;63119;51.788;8.824;2024-01-16T04:19:39;99179.88;;;1.22;93.59
74613;BME280;63119;51.788;8.824;2024-01-16T04:22:04;99180.72;;;1.23;93.57
74613;BME280;63119;51.788;8.824;2024-01-16T04:24:30;99183.19;;;1.26;93.33
74613;BME280;63119;51.788;8.824;2024-01-16T04:26:56;99185.28;;;1.38;92.70
74613;BME280;63119;51.788;8.824;2024-01-16T04:29:21;99188.22;;;1.30;92.81
74613;BME280;63119;51.788;8.824;2024-01-16T04:31:46;99187.88;;;1.38;92.61
74613;BME280;63119;51.788;8.824;2024-01-16T04:34:12;99184.56;;;1.34;93.86
74613;BME280;63119;51.788;8.824;2024-01-16T04:36:37;99187.75;;;1.41;93.27
74613;BME280;63119;51.788;8.824;2024-01-16T04:39:02;99190.34;;;1.41;93.39
74613;BME280;63119;51.788;8.824;2024-01-16T04:41:28;99186.97;;;1.39;92.87
74613;BME280;63119;51.788;8.824;2024-01-16T04:43:54;99192.06;;;1.42;93.39
74613;BME280;63119;51.788;8.824;2024-01-16T04:46:19;99187.88;;;1.38;93.26
74613;BME280;63119;51.788;8.824;2024-01-16T04:48:44;99190.09;;;1.47;92.73
74613;BME280;63119;51.788;8.824;2024-01-16T04:51:09;99183.47;;;1.40;93.32
74613;BME280;63119;51.788;8.824;2024-01-16T04:53:35;99188.94;;;1.34;93.82
74613;BME280;63119;51.788;8.824;2024-01-16T04:56:00;99192.06;;;1.42;93.46
74613;BME280;63119;51.788;8.824;2024-01-16T04:58:25;99183.75;;;1.34;93.99
74613;BME280;63119;51.788;8.824;2024-01-16T05:00:50;99185.28;;;1.38;94.37
74613;BME280;63119;51.788;8.824;2024-01-16T05:03:16;99180.59;;;1.26;93.69
74613;BME280;63119;51.788;8.824;2024-01-16T05:05:41;99190.88;;;1.29;94.52
74613;BME280;63119;51.788;8.824;2024-01-16T05:08:07;99188.69;;;1.40;94.94
74613;BME280;63119;51.788;8.824;2024-01-16T05:10:32;99197.44;;;1.37;94.25
74613;BME280;63119;51.788;8.824;2024-01-16T05:12:57;99187.25;;;1.33;94.09
74613;BME280;63119;51.788;8.824;2024-01-16T05:15:23;99182.03;;;1.33;93.64
74613;BME280;63119;51.788;8.824;2024-01-16T05:17:48;99186.13;;;1.38;93.81
74613;BME280;63119;51.788;8.824;2024-01-16T05:20:13;99170.84;;;1.31;93.22
74613;BME280;63119;51.788;8.824;2024-01-16T05:22:38;99172.72;;;1.27;93.55
74613;BME280;63119;51.788;8.824;2024-01-16T05:25:04;99168.59;;;1.22;93.97
74613;BME280;63119;51.788;8.824;2024-01-16T05:27:30;99167.16;;;1.35;92.98
74613;BME280;63119;51.788;8.824;2024-01-16T05:29:55;99171.59;;;1.33;93.33
74613;BME280;63119;51.788;8.824;2024-01-16T05:32:20;99172.25;;;1.38;92.96
74613;BME280;63119;51.788;8.824;2024-01-16T05:34:46;99169.13;;;1.30;93.84
74613;BME280;63119;51.788;8.824;2024-01-16T05:37:11;99170.03;;;1.29;93.40
74613;BME280;63119;51.788;8.824;2024-01-16T05:39:36;99172.25;;;1.38;93.97
74613;BME280;63119;51.788;8.824;2024-01-16T05:42:02;99167.28;;;1.52;93.27
74613;BME280;63119;51.788;8.824;2024-01-16T05:44:27;99166.00;;;1.42;92.42
74613;BME280;63119;51.788;8.824;2024-01-16T05:46:53;99164.16;;;1.44;92.56
74613;BME280;63119;51.788;8.824;2024-01-16T05:49:18;99162.31;;;1.27;92.29
74613;BME280;63119;51.788;8.824;2024-01-16T05:51:43;99164.19;;;1.24;92.90
74613;BME280;63119;51.788;8.824;2024-01-16T05:54:08;99170.16;;;1.26;92.83
74613;BME280;63119;51.788;8.824;2024-01-16T05:56:34;99178.25;;;1.40;92.77
74613;BME280;63119;51.788;8.824;2024-01-16T05:58:59;99170.44;;;1.58;92.72
74613;BME280;63119;51.788;8.824;2024-01-16T06:01:24;99177.31;;;1.41;92.45
74613;BME280;63119;51.788;8.824;2024-01-16T06:03:50;99174.44;;;1.47;92.22
74613;BME280;63119;51.788;8.824;2024-01-16T06:06:15;99176.69;;;1.36;92.98
74613;BME280;63119;51.788;8.824;2024-01-16T06:08:41;99176.59;;;1.37;92.33
74613;BME280;63119;51.788;8.824;2024-01-16T06:11:07;99175.84;;;1.35;93.08
74613;BME280;63119;51.788;8.824;2024-01-16T06:13:32;99185.09;;;1.42;93.47
74613;BME280;63119;51.788;8.824;2024-01-16T06:15:58;99181.13;;;1.91;100.00
74613;BME280;63119;51.788;8.824;2024-01-16T06:18:23;99186.31;;;2.29;98.21
74613;BME280;63119;51.788;8.824;2024-01-16T06:20:48;99185.84;;;2.20;93.46
74613;BME280;63119;51.788;8.824;2024-01-16T06:23:14;99175.56;;;2.53;94.29
74613;BME280;63119;51.788;8.824;2024-01-16T06:25:39;99185.84;;;2.20;91.54
74613;BME280;63119;51.788;8.824;2024-01-16T06:28:05;99187.97;;;1.94;91.68
74613;BME280;63119;51.788;8.824;2024-01-16T06:30:30;99183.66;;;1.74;92.43
74613;BME280;63119;51.788;8.824;2024-01-16T06:32:56;99194.22;;;1.71;93.20
74613;BME280;63119;51.788;8.824;2024-01-16T06:35:22;99194.56;;;1.63;92.90
74613;BME280;63119;51.788;8.824;2024-01-16T06:37:48;99195.03;;;1.53;94.11
74613;BME280;63119;51.788;8.824;2024-01-16T06:40:14;99196.91;;;1.49;93.88
74613;BME280;63119;51.788;8.824;2024-01-16T06:42:39;99188.16;;;1.52;93.62
74613;BME280;63119;51.788;8.824;2024-01-16T06:45:04;99191.53;;;1.54;93.83
74613;BME280;63119;51.788;8.824;2024-01-16T06:47:30;99195.31;;;1.47;93.97
74613;BME280;63119;51.788;8.824;2024-01-16T06:49:56;99188.66;;;1.60;94.09
74613;BME280;63119;51.788;8.824;2024-01-16T06:52:21;99201.69;;;1.60;94.02
74613;BME280;63119;51.788;8.824;2024-01-16T06:54:46;99197.78;;;1.50;94.16
74613;BME280;63119;51.788;8.824;2024-01-16T06:57:12;99199.66;;;1.67;93.76
74613;BME280;63119;51.788;8.824;2024-01-16T06:59:37;99199.47;;;1.51;93.72
74613;BME280;63119;51.788;8.824;2024-01-16T07:02:02;99197.31;;;1.60;92.80
74613;BME280;63119;51.788;8.824;2024-01-16T07:04:28;99199.69;;;1.65;93.15
74613;BME280;63119;51.788;8.824;2024-01-16T07:06:54;99199.38;;;1.52;93.81
74613;BME280;63119;51.788;8.824;2024-01-16T07:09:19;99192.19;;;1.39;93.98
74613;BME280;63119;51.788;8.824;2024-01-16T07:11:46;99198.31;;;1.38;94.40
74613;BME280;63119;51.788;8.824;2024-01-16T07:14:11;99191.84;;;1.46;93.83
74613;BME280;63119;51.788;8.824;2024-01-16T07:16:37;99200.59;;;1.45;94.44
74613;BME280;63119;51.788;8.824;2024-01-16T07:19:02;99203.78;;;1.52;93.86
74613;BME280;63119;51.788;8.824;2024-01-16T07:21:27;99205.72;;;1.47;94.16
74613;BME280;63119;51.788;8.824;2024-01-16T07:23:54;99211.47;;;1.55;94.16
74613;BME280;63119;51.788;8.824;2024-01-16T07:26:19;99210.63;;;1.54;94.33
74613;BME280;63119;51.788;8.824;2024-01-16T07:28:44;99207.22;;;1.52;94.29
74613;BME280;63119;51.788;8.824;2024-01-16T07:31:09;99206.41;;;1.52;95.06
74613;BME280;63119;51.788;8.824;2024-01-16T07:33:35;99207.75;;;1.60;94.04
74613;BME280;63119;51.788;8.824;2024-01-16T07:36:01;99202.84;;;1.53;93.94
74613;BME280;63119;51.788;8.824;2024-01-16T07:38:26;99212.16;;;1.58;93.59
74613;BME280;63119;51.788;8.824;2024-01-16T07:40:51;99210.53;;;1.56;94.31
74613;BME280;63119;51.788;8.824;2024-01-16T07:43:17;99219.94;;;1.60;94.50
74613;BME280;63119;51.788;8.824;2024-01-16T07:45:42;99206.31;;;1.53;94.72
74613;BME280;63119;51.788;8.824;2024-01-16T07:48:07;99211.19;;;1.61;94.57
74613;BME280;63119;51.788;8.824;2024-01-16T07:50:33;99222.00;;;1.72;94.15
74613;BME280;63119;51.788;8.824;2024-01-16T07:52:58;99220.44;;;1.68;93.20
74613;BME280;63119;51.788;8.824;2024-01-16T07:55:24;99218.03;;;1.63;94.03
74613;BME280;63119;51.788;8.824;2024-01-16T07:57:49;99212.25;;;1.57;94.43
74613;BME280;63119;51.788;8.824;2024-01-16T08:00:14;99227.75;;;1.60;93.84
74613;BME280;63119;51.788;8.824;2024-01-16T08:02:40;99227.16;;;1.53;94.69
74613;BME280;63119;51.788;8.824;2024-01-16T08:05:06;99226.91;;;1.59;94.50
74613;BME280;63119;51.788;8.824;2024-01-16T08:07:32;99225.28;;;1.57;93.78
74613;BME280;63119;51.788;8.824;2024-01-16T08:09:57;99227.63;;;1.63;94.03
74613;BME280;63119;51.788;8.824;2024-01-16T08:12:23;99230.84;;;1.68;94.19
74613;BME280;63119;51.788;8.824;2024-01-16T08:14:48;99232.06;;;1.61;93.64
74613;BME280;63119;51.788;8.824;2024-01-16T08:17:13;99229.09;;;1.69;93.78
74613;BME280;63119;51.788;8.824;2024-01-16T08:19:38;99223.25;;;1.63;93.43
74613;BME280;63119;51.788;8.824;2024-01-16T08:22:03;99225.78;;;1.65;93.10
74613;BME280;63119;51.788;8.824;2024-01-16T08:24:29;99227.47;;;1.66;93.07
74613;BME280;63119;51.788;8.824;2024-01-16T08:26:54;99229.81;;;1.72;93.09
74613;BME280;63119;51.788;8.824;2024-01-16T08:29:22;99232.56;;;1.69;93.68
74613;BME280;63119;51.788;8.824;2024-01-16T08:31:47;99234.03;;;1.75;92.56
74613;BME280;63119;51.788;8.824;2024-01-16T08:34:13;99234.91;;;1.75;92.57
74613;BME280;63119;51.788;8.824;2024-01-16T08:36:38;99236.34;;;1.62;92.50
74613;BME280;63119;51.788;8.824;2024-01-16T08:39:03;99240.44;;;1.67;92.95
74613;BME280;63119;51.788;8.824;2024-01-16T08:41:28;99233.09;;;1.57;92.99
74613;BME280;63119;51.788;8.824;2024-01-16T08:43:54;99239.25;;;1.75;92.76
74613;BME280;63119;51.788;8.824;2024-01-16T08:46:19;99241.28;;;1.68;93.01
74613;BME280;63119;51.788;8.824;2024-01-16T08:48:45;99237.50;;;1.75;92.72
74613;BME280;63119;51.788;8.824;2024-01-16T08:51:11;99236.97;;;1.87;91.97
74613;BME280;63119;51.788;8.824;2024-01-16T08:53:37;99250.06;;;1.86;91.85
74613;BME280;63119;51.788;8.824;2024-01-16T08:56:02;99244.47;;;1.75;91.60
74613;BME280;63119;51.788;8.824;2024-01-16T08:58:28;99255.13;;;1.70;91.53
74613;BME280;63119;51.788;8.824;2024-01-16T09:00:53;99246.19;;;1.76;92.08
74613;BME280;63119;51.788;8.824;2024-01-16T09:03:18;99247.66;;;1.81;91.20
74613;BME280;63119;51.788;8.824;2024-01-16T09:05:43;99246.31;;;1.73;91.29
74613;BME280;63119;51.788;8.824;2024-01-16T09:08:09;99253.03;;;1.78;91.28
74613;BME280;63119;51.788;8.824;2024-01-16T09:10:34;99249.50;;;1.79;90.73
74613;BME280;63119;51.788;8.824;2024-01-16T09:12:59;99253.69;;;2.02;90.00
74613;BME280;63119;51.788;8.824;2024-01-16T09:15:25;99252.63;;;1.87;90.16
74613;BME280;63119;51.788;8.824;2024-01-16T09:17:50;99251.03;;;1.83;90.47
74613;BME280;63119;51.788;8.824;2024-01-16T09:20:15;99254.44;;;1.85;89.13
74613;BME280;63119;51.788;8.824;2024-01-16T09:22:40;99249.50;;;1.79;88.88
74613;BME280;63119;51.788;8.824;2024-01-16T09:25:06;99247.59;;;1.83;88.49
74613;BME280;63119;51.788;8.824;2024-01-16T09:27:32;99248.44;;;1.83;89.21
74613;BME280;63119;51.788;8.824;2024-01-16T09:29:57;99248.53;;;1.82;89.09
74613;BME280;63119;51.788;8.824;2024-01-16T09:32:22;99252.63;;;1.87;89.73
74613;BME280;63119;51.788;8.824;2024-01-16T09:34:48;99248.69;;;1.97;89.19
74613;BME280;63119;51.788;8.824;2024-01-16T09:37:13;99253.66;;;1.83;90.10
74613;BME280;63119;51.788;8.824;2024-01-16T09:39:40;99248.81;;;1.94;89.05
74613;BME280;63119;51.788;8.824;2024-01-16T09:42:06;99255.38;;;2.03;89.79
74613;BME280;63119;51.788;8.824;2024-01-16T09:44:32;99258.72;;;2.06;88.70
74613;BME280;63119;51.788;8.824;2024-01-16T09:46:57;99249.63;;;2.15;88.68
74613;BME280;63119;51.788;8.824;2024-01-16T09:49:24;99251.44;;;2.13;88.74
74613;BME280;63119;51.788;8.824;2024-01-16T09:51:50;99255.16;;;2.07;88.65
74613;BME280;63119;51.788;8.824;2024-01-16T09:54:15;99256.38;;;2.00;88.72
74613;BME280;63119;51.788;8.824;2024-01-16T09:56:44;99256.59;;;2.14;87.80
74613;BME280;63119;51.788;8.824;2024-01-16T09:59:12;99260.16;;;1.93;89.27
74613;BME280;63119;51.788;8.824;2024-01-16T10:01:41;99258.63;;;2.08;88.87
74613;BME280;63119;51.788;8.824;2024-01-16T10:04:06;99246.97;;;1.96;89.23
74613;BME280;63119;51.788;8.824;2024-01-16T10:06:33;99250.44;;;1.97;89.54
74613;BME280;63119;51.788;8.824;2024-01-16T10:08:59;99260.94;;;1.95;88.97
74613;BME280;63119;51.788;8.824;2024-01-16T10:11:24;99250.38;;;1.98;89.80
74613;BME280;63119;51.788;8.824;2024-01-16T10:13:49;99254.31;;;2.07;89.31
74613;BME280;63119;51.788;8.824;2024-01-16T10:16:15;99248.56;;;2.00;90.06
74613;BME280;63119;51.788;8.824;2024-01-16T10:18:40;99251.78;;;2.05;88.78
74613;BME280;63119;51.788;8.824;2024-01-16T10:21:21;99255.94;;;1.91;88.91
74613;BME280;63119;51.788;8.824;2024-01-16T10:23:47;99249.25;;;1.85;88.87
74613;BME280;63119;51.788;8.824;2024-01-16T10:26:12;99247.97;;;1.94;88.38
74613;BME280;63119;51.788;8.824;2024-01-16T10:28:40;99253.63;;;2.03;88.55
74613;BME280;63119;51.788;8.824;2024-01-16T10:31:10;99248.28;;;1.86;89.06
74613;BME280;63119;51.788;8.824;2024-01-16T10:33:36;99247.75;;;1.98;90.03
74613;BME280;63119;51.788;8.824;2024-01-16T10:36:12;99251.91;;;1.84;87.36
74613;BME280;63119;51.788;8.824;2024-01-16T10:38:39;99243.34;;;2.00;87.41
74613;BME280;63119;51.788;8.824;2024-01-16T10:41:17;99245.59;;;2.08;87.91
74613;BME280;63119;51.788;8.824;2024-01-16T10:43:43;99251.75;;;1.87;88.47
74613;BME280;63119;51.788;8.824;2024-01-16T10:46:17;99251.34;;;1.96;88.79
74613;BME280;63119;51.788;8.824;2024-01-16T10:48:59;99243.88;;;1.88;87.08
74613;BME280;63119;51.788;8.824;2024-01-16T10:51:26;99248.75;;;1.96;87.77
74613;BME280;63119;51.788;8.824;2024-01-16T10:53:59;99253.88;;;1.79;88.49
74613;BME280;63119;51.788;8.824;2024-01-16T10:56:27;99248.69;;;1.97;87.99
74613;BME280;63119;51.788;8.824;2024-01-16T10:59:18;99253.06;;;2.15;87.49
74613;BME280;63119;51.788;8.824;2024-01-16T11:01:49;99252.06;;;1.99;86.52
74613;BME280;63119;51.788;8.824;2024-01-16T11:04:17;99245.22;;;1.97;86.88
74613;BME280;63119;51.788;8.824;2024-01-16T11:06:43;99245.13;;;1.98;87.18
74613;BME280;63119;51.788;8.824;2024-01-16T11:09:09;99239.16;;;1.96;87.57
74613;BME280;63119;51.788;8.824;2024-01-16T11:11:34;99248.19;;;2.08;88.19
74613;BME280;63119;51.788;8.824;2024-01-16T11:14:02;99242.34;;;2.03;87.88
74613;BME280;63119;51.788;8.824;2024-01-16T11:16:28;99244.53;;;2.31;86.87
74613;BME280;63119;51.788;8.824;2024-01-16T11:18:54;99247.34;;;2.26;86.19
74613;BME280;63119;51.788;8.824;2024-01-16T11:21:19;99242.97;;;2.27;85.98
74613;BME280;63119;51.788;8.824;2024-01-16T11:23:45;99240.13;;;2.31;85.33
74613;BME280;63119;51.788;8.824;2024-01-16T11:26:30;99250.09;;;2.42;83.33
74613;BME280;63119;51.788;8.824;2024-01-16T11:29:00;99244.03;;;2.22;83.07
74613;BME280;63119;51.788;8.824;2024-01-16T11:31:29;99246.00;;;2.17;83.16
74613;BME280;63119;51.788;8.824;2024-01-16T11:33:55;99240.50;;;2.24;82.09
74613;BME280;63119;51.788;8.824;2024-01-16T11:39:17;99240.38;;;2.27;81.62
74613;BME280;63119;51.788;8.824;2024-01-16T11:41:55;99246.88;;;2.37;82.59
74613;BME280;63119;51.788;8.824;2024-01-16T11:44:40;99242.34;;;2.22;81.87
74613;BME280;63119;51.788;8.824;2024-01-16T11:47:07;99241.50;;;2.21;80.91
74613;BME280;63119;51.788;8.824;2024-01-16T11:49:33;99244.31;;;2.35;80.92
74613;BME280;63119;51.788;8.824;2024-01-16T11:51:59;99234.88;;;2.33;80.29
74613;BME280;63119;51.788;8.824;2024-01-16T11:54:24;99238.53;;;2.29;80.64
74613;BME280;63119;51.788;8.824;2024-01-16T12:00:05;99246.28;;;2.11;80.11
74613;BME280;63119;51.788;8.824;2024-01-16T12:02:48;99239.50;;;2.07;80.18
74613;BME280;63119;51.788;8.824;2024-01-16T12:05:14;99235.38;;;2.03;79.88
74613;BME280;63119;51.788;8.824;2024-01-16T12:07:50;99235.16;;;2.08;80.10
74613;BME280;63119;51.788;8.824;2024-01-16T12:10:17;99234.53;;;2.22;79.62
74613;BME280;63119;51.788;8.824;2024-01-16T12:12:43;99235.22;;;2.25;79.28
74613;BME280;63119;51.788;8.824;2024-01-16T12:15:16;99233.59;;;2.22;78.94
74613;BME280;63119;51.788;8.824;2024-01-16T12:18:02;99235.28;;;2.24;79.00
74613;BME280;63119;51.788;8.824;2024-01-16T12:20:30;99237.97;;;2.22;78.45
74613;BME280;63119;51.788;8.824;2024-01-16T12:22:58;99240.78;;;2.17;77.89
74613;BME280;63119;51.788;8.824;2024-01-16T12:25:24;99239.78;;;2.01;78.06
74613;BME280;63119;51.788;8.824;2024-01-16T12:28:00;99234.88;;;2.14;77.80
74613;BME280;63119;51.788;8.824;2024-01-16T12:30:26;99237.56;;;2.12;77.41
74613;BME280;63119;51.788;8.824;2024-01-16T12:35:36;99229.13;;;1.87;77.43
74613;BME280;63119;51.788;8.824;2024-01-16T12:38:06;99222.66;;;1.96;76.89
74613;BME280;63119;51.788;8.824;2024-01-16T12:40:35;99223.13;;;2.04;77.04
74613;BME280;63119;51.788;8.824;2024-01-16T12:43:01;99212.56;;;2.07;77.18
74613;BME280;63119;51.788;8.824;2024-01-16T12:45:27;99208.34;;;2.23;76.63
74613;BME280;63119;51.788;8.824;2024-01-16T12:47:54;99201.72;;;2.16;78.04
74613;BME280;63119;51.788;8.824;2024-01-16T12:50:24;99196.22;;;2.03;76.50
74613;BME280;63119;51.788;8.824;2024-01-16T12:52:50;99195.81;;;2.12;76.76
74613;BME280;63119;51.788;8.824;2024-01-16T12:55:16;99190.44;;;1.97;75.66
74613;BME280;63119;51.788;8.824;2024-01-16T12:57:42;99186.97;;;1.96;76.91
74613;BME280;63119;51.788;8.824;2024-01-16T13:00:23;99186.91;;;1.98;76.11
74613;BME280;63119;51.788;8.824;2024-01-16T13:02:53;99183.66;;;1.93;76.36
74613;BME280;63119;51.788;8.824;2024-01-16T13:05:20;99181.69;;;1.98;76.28
74613;BME280;63119;51.788;8.824;2024-01-16T13:07:45;99179.22;;;1.95;76.72
74613;BME280;63119;51.788;8.824;2024-01-16T13:10:12;99172.22;;;2.14;75.31
74613;BME280;63119;51.788;8.824;2024-01-16T13:12:41;99172.47;;;1.91;76.55